createdAt,value
2023-01-08T00:00:30.707Z,54.20
2023-01-08T00:03:24.552Z,63.40
2023-01-08T00:06:01.435Z,52.20
2023-01-08T00:08:35.099Z,59.30
2023-01-08T00:11:08.982Z,53.40
2023-01-08T00:13:42.378Z,51.90
2023-01-08T00:16:19.435Z,50.80
2023-01-08T00:18:52.915Z,44.20
2023-01-08T00:21:26.308Z,50.80
2023-01-08T00:23:59.480Z,52.80
2023-01-08T00:26:32.522Z,51.40
2023-01-08T00:29:05.720Z,55.70
2023-01-08T00:31:38.762Z,52.80
2023-01-08T00:34:11.940Z,50.60
2023-01-08T00:36:44.980Z,48.10
2023-01-08T00:39:18.005Z,51.90
2023-01-08T00:41:51.014Z,53.80
2023-01-08T00:44:24.172Z,57.30
2023-01-08T00:46:57.285Z,48.10
2023-01-08T00:49:30.326Z,45.90
2023-01-08T00:52:03.364Z,61.70
2023-01-08T00:54:36.500Z,56.70
2023-01-08T00:57:09.567Z,56.80
2023-01-08T00:59:42.677Z,51.00
2023-01-08T01:02:16.004Z,50.90
2023-01-08T01:04:49.006Z,53.50
2023-01-08T01:07:22.205Z,49.40
2023-01-08T01:09:55.369Z,49.40
2023-01-08T01:12:28.678Z,51.80
2023-01-08T01:15:01.861Z,52.20
2023-01-08T01:17:35.881Z,50.30
2023-01-08T01:20:11.969Z,53.00
2023-01-08T01:22:45.379Z,49.20
2023-01-08T01:25:19.285Z,50.20
2023-01-08T01:27:52.300Z,51.60
2023-01-08T01:30:25.404Z,55.90
2023-01-08T01:32:58.503Z,55.30
2023-01-08T01:35:31.607Z,56.90
2023-01-08T01:38:04.634Z,52.10
2023-01-08T01:40:42.739Z,50.80
2023-01-08T01:43:17.133Z,50.10
2023-01-08T01:45:50.291Z,44.10
2023-01-08T01:48:23.399Z,55.40
2023-01-08T01:50:57.229Z,56.40
2023-01-08T01:53:34.563Z,54.20
2023-01-08T01:56:08.600Z,50.90
2023-01-08T01:58:41.570Z,46.80
2023-01-08T02:01:15.178Z,51.60
2023-01-08T02:03:48.290Z,49.50
2023-01-08T02:06:36.627Z,60.30
2023-01-08T02:09:23.624Z,48.90
2023-01-08T02:12:20.277Z,52.00
2023-01-08T02:15:11.642Z,59.70
2023-01-08T02:17:56.178Z,48.40
2023-01-08T02:20:36.653Z,45.10
2023-01-08T02:23:28.430Z,54.00
2023-01-08T02:26:24.917Z,48.10
2023-01-08T02:29:04.892Z,47.10
2023-01-08T02:31:41.259Z,47.10
2023-01-08T02:34:15.038Z,42.20
2023-01-08T02:36:49.572Z,49.30
2023-01-08T02:39:51.398Z,52.60
2023-01-08T02:42:36.038Z,54.40
2023-01-08T02:45:18.709Z,55.50
2023-01-08T02:48:00.813Z,53.10
2023-01-08T02:50:40.471Z,47.20
2023-01-08T02:53:18.941Z,52.60
2023-01-08T02:56:03.026Z,50.10
2023-01-08T02:58:40.191Z,58.70
2023-01-08T03:01:17.456Z,52.30
2023-01-08T03:03:53.733Z,58.90
2023-01-08T03:06:29.021Z,53.10
2023-01-08T03:09:03.271Z,49.20
2023-01-08T03:11:41.998Z,48.10
2023-01-08T03:14:21.799Z,57.80
2023-01-08T03:17:00.358Z,42.20
2023-01-08T03:19:37.826Z,51.30
2023-01-08T03:22:13.965Z,47.80
2023-01-08T03:24:49.810Z,47.50
2023-01-08T03:27:29.725Z,49.40
2023-01-08T03:30:04.544Z,46.90
2023-01-08T03:32:38.877Z,59.80
2023-01-08T03:35:16.641Z,52.70
2023-01-08T03:37:56.527Z,59.50
2023-01-08T03:40:36.606Z,58.80
2023-01-08T03:43:09.883Z,58.10
2023-01-08T03:45:48.896Z,58.00
2023-01-08T03:48:24.316Z,53.30
2023-01-08T03:50:57.523Z,59.40
2023-01-08T03:53:30.549Z,59.70
2023-01-08T03:56:03.618Z,61.50
2023-01-08T03:58:36.646Z,61.00
2023-01-08T04:01:09.991Z,53.50
2023-01-08T04:03:43.044Z,57.30
2023-01-08T04:06:16.053Z,61.80
2023-01-08T04:08:50.270Z,55.00
2023-01-08T04:11:23.534Z,60.70
2023-01-08T04:13:57.008Z,57.00
2023-01-08T04:16:30.067Z,53.30
2023-01-08T04:19:03.065Z,55.90
2023-01-08T04:21:36.016Z,55.90
2023-01-08T04:24:10.044Z,56.40
2023-01-08T04:26:43.114Z,59.10
2023-01-08T04:29:17.027Z,54.30
2023-01-08T04:31:50.049Z,56.10
2023-01-08T04:34:23.026Z,52.60
2023-01-08T04:36:55.968Z,49.90
2023-01-08T04:39:28.979Z,48.90
2023-01-08T04:42:01.972Z,54.60
2023-01-08T04:44:35.540Z,49.40
2023-01-08T04:47:08.510Z,57.00
2023-01-08T04:49:41.560Z,56.80
2023-01-08T04:52:14.783Z,55.70
2023-01-08T04:54:47.805Z,58.80
2023-01-08T04:57:21.002Z,61.70
2023-01-08T04:59:54.008Z,54.20
2023-01-08T05:02:27.111Z,54.60
2023-01-08T05:05:00.235Z,57.00
2023-01-08T05:07:33.139Z,56.50
2023-01-08T05:10:06.824Z,51.60
2023-01-08T05:12:39.815Z,59.70
2023-01-08T05:15:14.784Z,54.80
2023-01-08T05:17:47.740Z,56.00
2023-01-08T05:20:20.966Z,57.00
2023-01-08T05:22:54.502Z,54.60
2023-01-08T05:25:27.810Z,56.00
2023-01-08T05:28:00.835Z,56.50
2023-01-08T05:30:33.848Z,49.10
2023-01-08T05:33:07.129Z,52.80
2023-01-08T05:35:42.137Z,51.60
2023-01-08T05:38:15.455Z,52.80
2023-01-08T05:40:48.471Z,47.70
2023-01-08T05:43:21.554Z,45.10
2023-01-08T05:45:54.700Z,51.10
2023-01-08T05:48:27.732Z,52.70
2023-01-08T05:51:00.784Z,42.60
2023-01-08T05:53:34.201Z,43.20
2023-01-08T05:56:11.666Z,46.10
2023-01-08T05:58:44.755Z,49.70
2023-01-08T06:01:18.738Z,47.30
2023-01-08T06:03:51.900Z,54.00
2023-01-08T06:06:25.093Z,51.10
2023-01-08T06:08:58.187Z,47.10
2023-01-08T06:11:31.197Z,46.10
2023-01-08T06:14:04.210Z,53.00
2023-01-08T06:16:37.289Z,51.00
2023-01-08T06:19:10.549Z,54.10
2023-01-08T06:21:43.579Z,49.50
2023-01-08T06:24:16.677Z,50.70
2023-01-08T06:26:49.681Z,44.50
2023-01-08T06:29:22.961Z,42.00
2023-01-08T06:31:55.931Z,43.80
2023-01-08T06:34:28.916Z,46.40
2023-01-08T06:37:01.950Z,46.00
2023-01-08T06:39:35.041Z,45.00
2023-01-08T06:42:08.185Z,53.10
2023-01-08T06:44:41.176Z,48.00
2023-01-08T06:47:14.190Z,43.10
2023-01-08T06:49:47.173Z,42.10
2023-01-08T06:52:20.250Z,39.70
2023-01-08T06:54:53.284Z,36.00
2023-01-08T06:57:26.548Z,37.80
2023-01-08T06:59:59.609Z,32.70
2023-01-08T07:02:32.862Z,42.80
2023-01-08T07:05:06.602Z,39.80
2023-01-08T07:07:39.580Z,38.00
2023-01-08T07:10:13.408Z,35.20
2023-01-08T07:12:46.426Z,37.60
2023-01-08T07:15:20.675Z,36.80
2023-01-08T07:17:53.726Z,55.40
2023-01-08T07:20:26.666Z,41.60
2023-01-08T07:23:04.242Z,43.40
2023-01-08T07:25:37.363Z,37.60
2023-01-08T07:28:14.001Z,35.00
2023-01-08T07:30:47.007Z,35.40
2023-01-08T07:33:20.016Z,35.60
2023-01-08T07:35:58.164Z,36.00
2023-01-08T07:38:31.178Z,37.00
2023-01-08T07:41:04.751Z,37.40
2023-01-08T07:43:37.681Z,34.30
2023-01-08T07:46:10.861Z,35.70
2023-01-08T07:48:43.902Z,32.80
2023-01-08T07:51:16.909Z,36.10
2023-01-08T07:53:51.451Z,34.40
2023-01-08T07:56:25.146Z,33.40
2023-01-08T07:58:58.147Z,36.70
2023-01-08T08:01:31.509Z,32.60
2023-01-08T08:04:04.503Z,31.10
2023-01-08T08:06:37.488Z,29.80
2023-01-08T08:09:10.545Z,35.30
2023-01-08T08:11:43.721Z,40.60
2023-01-08T08:14:16.784Z,31.00
2023-01-08T08:16:50.066Z,34.50
2023-01-08T08:19:23.050Z,33.70
2023-01-08T08:21:56.204Z,36.50
2023-01-08T08:24:29.240Z,34.00
2023-01-08T08:27:02.322Z,31.10
2023-01-08T08:29:35.483Z,39.50
2023-01-08T08:32:08.871Z,40.40
2023-01-08T08:34:41.872Z,32.50
2023-01-08T08:37:15.183Z,36.40
2023-01-08T08:39:48.181Z,33.40
2023-01-08T08:42:21.183Z,31.50
2023-01-08T08:44:54.157Z,32.20
2023-01-08T08:47:27.218Z,31.60
2023-01-08T08:50:00.206Z,26.40
2023-01-08T08:52:34.347Z,27.90
2023-01-08T08:55:08.175Z,24.70
2023-01-08T08:57:41.342Z,24.80
2023-01-08T09:00:17.464Z,24.80
2023-01-08T09:02:52.592Z,22.20
2023-01-08T09:05:25.746Z,21.40
2023-01-08T09:07:59.284Z,22.70
2023-01-08T09:10:32.607Z,22.00
2023-01-08T09:13:05.704Z,21.30
2023-01-08T09:15:40.410Z,19.20
2023-01-08T09:18:15.903Z,21.70
2023-01-08T09:20:49.051Z,20.90
2023-01-08T09:23:22.048Z,25.60
2023-01-08T09:26:02.052Z,22.10
2023-01-08T09:28:35.572Z,18.70
2023-01-08T09:31:08.970Z,18.90
2023-01-08T09:33:42.004Z,19.60
2023-01-08T09:36:15.959Z,19.30
2023-01-08T09:38:49.172Z,20.70
2023-01-08T09:41:27.889Z,20.00
2023-01-08T09:44:02.231Z,19.80
2023-01-08T09:46:36.129Z,18.30
2023-01-08T09:49:17.137Z,17.60
2023-01-08T09:51:50.806Z,18.50
2023-01-08T09:54:25.507Z,15.70
2023-01-08T09:57:00.009Z,15.90
2023-01-08T09:59:33.458Z,17.60
2023-01-08T10:02:12.300Z,15.50
2023-01-08T10:04:46.613Z,12.40
2023-01-08T10:07:22.783Z,13.40
2023-01-08T10:09:57.075Z,15.00
2023-01-08T10:12:32.782Z,13.40
2023-01-08T10:15:12.845Z,16.30
2023-01-08T10:17:50.676Z,14.20
2023-01-08T10:20:26.826Z,14.70
2023-01-08T10:23:09.461Z,13.70
2023-01-08T10:25:55.103Z,13.30
2023-01-08T10:28:30.462Z,14.50
2023-01-08T10:31:11.251Z,13.50
2023-01-08T10:33:47.745Z,12.10
2023-01-08T10:36:27.820Z,12.90
2023-01-08T10:39:04.508Z,12.80
2023-01-08T10:41:42.443Z,12.70
2023-01-08T10:44:22.283Z,13.80
2023-01-08T10:46:59.495Z,13.70
2023-01-08T10:49:39.484Z,13.60
2023-01-08T10:52:29.761Z,12.20
2023-01-08T10:55:15.379Z,12.70
2023-01-08T10:57:56.705Z,13.50
2023-01-08T11:00:35.335Z,10.40
2023-01-08T11:03:17.364Z,11.40
2023-01-08T11:05:50.725Z,12.20
2023-01-08T11:08:25.002Z,11.70
2023-01-08T11:11:02.829Z,12.90
2023-01-08T11:13:35.938Z,11.40
2023-01-08T11:16:11.745Z,10.90
2023-01-08T11:18:51.122Z,11.50
2023-01-08T11:21:30.977Z,11.10
2023-01-08T11:24:18.211Z,12.60
2023-01-08T11:26:56.635Z,11.20
2023-01-08T11:29:39.026Z,12.70
2023-01-08T11:32:31.697Z,9.90
2023-01-08T11:35:13.588Z,11.10
2023-01-08T11:37:54.196Z,11.60
2023-01-08T11:40:41.518Z,10.70
2023-01-08T11:43:48.154Z,12.70
2023-01-08T11:46:38.503Z,11.30
2023-01-08T11:49:38.996Z,15.30
2023-01-08T11:52:30.876Z,12.60
2023-01-08T11:55:37.246Z,11.40
2023-01-08T11:58:29.710Z,11.50
2023-01-08T12:01:23.941Z,13.00
2023-01-08T12:04:18.345Z,12.30
2023-01-08T12:07:01.292Z,10.70
2023-01-08T12:09:46.070Z,12.80
2023-01-08T12:12:35.628Z,12.50
2023-01-08T12:15:21.104Z,13.20
2023-01-08T12:18:20.147Z,15.30
2023-01-08T12:21:00.077Z,12.90
2023-01-08T12:23:51.790Z,10.60
2023-01-08T12:26:33.265Z,13.70
2023-01-08T12:29:36.864Z,11.70
2023-01-08T12:32:32.069Z,13.20
2023-01-08T12:35:14.289Z,14.70
2023-01-08T12:37:57.594Z,12.90
2023-01-08T12:40:37.382Z,13.40
2023-01-08T12:43:17.537Z,13.70
2023-01-08T12:45:54.775Z,14.50
2023-01-08T12:48:31.433Z,15.10
2023-01-08T12:51:09.783Z,12.00
2023-01-08T12:53:56.056Z,13.90
2023-01-08T12:56:38.859Z,12.90
2023-01-08T12:59:26.283Z,15.40
2023-01-08T13:02:05.261Z,12.80
2023-01-08T13:04:47.757Z,16.60
2023-01-08T13:07:27.866Z,13.00
2023-01-08T13:10:08.125Z,12.30
2023-01-08T13:12:43.881Z,15.10
2023-01-08T13:15:26.640Z,15.00
2023-01-08T13:18:04.870Z,14.40
2023-01-08T13:20:38.197Z,14.00
2023-01-08T13:23:26.183Z,14.80
2023-01-08T13:26:01.014Z,14.80
2023-01-08T13:28:46.245Z,13.60
2023-01-08T13:31:31.010Z,14.10
2023-01-08T13:34:04.072Z,14.70
2023-01-08T13:36:37.263Z,14.30
2023-01-08T13:39:25.437Z,13.10
2023-01-08T13:42:29.018Z,11.90
2023-01-08T13:45:07.672Z,11.80
2023-01-08T13:47:46.563Z,12.90
2023-01-08T13:50:24.298Z,14.90
2023-01-08T13:53:02.692Z,14.10
2023-01-08T13:55:38.919Z,16.70
2023-01-08T13:58:17.084Z,12.70
2023-01-08T14:00:53.919Z,19.30
2023-01-08T14:03:35.225Z,14.60
2023-01-08T14:06:21.954Z,13.70
2023-01-08T14:08:57.548Z,12.60
2023-01-08T14:11:34.665Z,14.30
2023-01-08T14:14:11.684Z,15.10
2023-01-08T14:16:45.256Z,13.20
2023-01-08T14:19:21.560Z,15.50
2023-01-08T14:21:58.934Z,14.70
2023-01-08T14:24:31.971Z,17.10
2023-01-08T14:27:05.229Z,17.40
2023-01-08T14:29:38.266Z,17.90
2023-01-08T14:32:20.728Z,28.80
2023-01-08T14:34:56.275Z,20.60
2023-01-08T14:37:29.310Z,17.60
2023-01-08T14:40:02.732Z,17.50
2023-01-08T14:42:47.432Z,17.70
2023-01-08T14:45:25.494Z,15.90
2023-01-08T14:48:01.427Z,18.50
2023-01-08T14:50:38.346Z,15.50
2023-01-08T14:53:21.683Z,18.10
2023-01-08T14:55:58.064Z,15.50
2023-01-08T14:58:36.907Z,18.50
2023-01-08T15:01:18.556Z,15.50
2023-01-08T15:03:53.992Z,17.90
2023-01-08T15:06:32.176Z,16.10
2023-01-08T15:09:19.947Z,16.20
2023-01-08T15:11:58.600Z,16.80
2023-01-08T15:14:34.913Z,18.80
2023-01-08T15:17:17.283Z,20.10
2023-01-08T15:19:53.437Z,19.20
2023-01-08T15:22:30.075Z,17.20
2023-01-08T15:25:07.227Z,19.00
2023-01-08T15:27:40.369Z,15.00
2023-01-08T15:30:34.362Z,19.80
2023-01-08T15:33:22.792Z,18.90
2023-01-08T15:35:56.565Z,22.40
2023-01-08T15:38:29.560Z,20.30
2023-01-08T15:41:02.642Z,21.40
2023-01-08T15:43:35.612Z,24.30
2023-01-08T15:46:12.547Z,23.80
2023-01-08T15:48:45.768Z,22.10
2023-01-08T15:51:18.758Z,25.00
2023-01-08T15:53:51.939Z,24.10
2023-01-08T15:56:24.896Z,24.80
2023-01-08T15:58:58.041Z,25.10
2023-01-08T16:01:32.242Z,28.80
2023-01-08T16:04:05.405Z,30.20
2023-01-08T16:06:38.524Z,28.40
2023-01-08T16:09:11.578Z,26.50
2023-01-08T16:11:44.597Z,27.60
2023-01-08T16:14:17.866Z,26.20
2023-01-08T16:16:51.097Z,26.10
2023-01-08T16:19:25.110Z,29.80
2023-01-08T16:21:58.319Z,27.60
2023-01-08T16:24:31.484Z,26.40
2023-01-08T16:27:04.513Z,29.10
2023-01-08T16:29:37.542Z,28.80
2023-01-08T16:32:11.651Z,28.00
2023-01-08T16:34:44.740Z,27.50
2023-01-08T16:37:17.951Z,26.20
2023-01-08T16:39:50.935Z,26.30
2023-01-08T16:42:23.984Z,29.40
2023-01-08T16:44:56.990Z,32.10
2023-01-08T16:47:30.116Z,31.50
2023-01-08T16:50:03.305Z,26.40
2023-01-08T16:52:38.179Z,25.90
2023-01-08T16:55:12.834Z,27.70
2023-01-08T16:57:46.636Z,30.40
2023-01-08T17:00:21.730Z,35.20
2023-01-08T17:02:54.815Z,28.90
2023-01-08T17:05:27.917Z,31.60
2023-01-08T17:08:01.969Z,26.00
2023-01-08T17:10:35.403Z,26.90
2023-01-08T17:13:08.490Z,25.00
2023-01-08T17:15:43.038Z,25.60
2023-01-08T17:18:16.515Z,23.70
2023-01-08T17:20:55.885Z,25.00
2023-01-08T17:23:29.147Z,29.40
2023-01-08T17:26:07.622Z,28.40
2023-01-08T17:28:41.013Z,25.80
2023-01-08T17:31:18.556Z,27.40
2023-01-08T17:33:54.245Z,26.60
2023-01-08T17:36:28.793Z,31.30
2023-01-08T17:39:01.714Z,29.00
2023-01-08T17:41:53.452Z,25.60
2023-01-08T17:44:26.796Z,26.90
2023-01-08T17:46:59.814Z,22.50
2023-01-08T17:49:33.156Z,22.90
2023-01-08T17:52:06.194Z,24.30
2023-01-08T17:54:39.520Z,28.60
2023-01-08T17:57:12.773Z,29.40
2023-01-08T17:59:45.901Z,28.40
2023-01-08T18:02:20.290Z,26.60
2023-01-08T18:04:53.391Z,26.90
2023-01-08T18:07:26.616Z,24.50
2023-01-08T18:09:59.644Z,27.90
2023-01-08T18:12:32.982Z,29.70
2023-01-08T18:15:07.091Z,28.80
2023-01-08T18:17:40.363Z,29.30
2023-01-08T18:20:15.306Z,27.10
2023-01-08T18:22:48.416Z,26.90
2023-01-08T18:25:21.780Z,22.00
2023-01-08T18:27:54.853Z,27.30
2023-01-08T18:30:29.214Z,25.80
2023-01-08T18:33:02.202Z,27.30
2023-01-08T18:35:35.355Z,29.10
2023-01-08T18:38:09.985Z,25.90
2023-01-08T18:40:43.070Z,28.60
2023-01-08T18:43:16.512Z,28.80
2023-01-08T18:45:49.639Z,28.10
2023-01-08T18:48:22.927Z,32.80
2023-01-08T18:50:56.336Z,30.00
2023-01-08T18:53:29.365Z,26.60
2023-01-08T18:56:04.645Z,29.00
2023-01-08T18:58:37.605Z,34.70
2023-01-08T19:01:11.127Z,37.70
2023-01-08T19:03:44.388Z,33.70
2023-01-08T19:06:18.913Z,32.10
2023-01-08T19:08:52.300Z,36.20
2023-01-08T19:11:25.597Z,35.60
2023-01-08T19:14:00.306Z,28.90
2023-01-08T19:16:33.558Z,30.20
2023-01-08T19:19:07.127Z,34.80
2023-01-08T19:21:40.237Z,31.60
2023-01-08T19:24:14.079Z,26.20
2023-01-08T19:26:47.209Z,28.70
2023-01-08T19:29:20.363Z,25.10
2023-01-08T19:31:53.432Z,26.30
2023-01-08T19:34:26.576Z,29.40
2023-01-08T19:37:01.297Z,33.40
2023-01-08T19:39:34.550Z,32.80
2023-01-08T19:42:25.441Z,33.40
2023-01-08T19:44:58.843Z,31.40
2023-01-08T19:47:31.919Z,28.90
2023-01-08T19:50:05.155Z,32.80
2023-01-08T19:52:38.431Z,33.70
2023-01-08T19:55:12.614Z,31.00
2023-01-08T19:57:45.638Z,37.80
2023-01-08T20:00:22.502Z,31.90
2023-01-08T20:02:55.560Z,29.20
2023-01-08T20:05:28.662Z,32.10
2023-01-08T20:08:01.738Z,28.60
2023-01-08T20:10:35.094Z,30.80
2023-01-08T20:13:08.369Z,30.30
2023-01-08T20:15:41.570Z,30.90
2023-01-08T20:18:14.665Z,28.10
2023-01-08T20:20:47.633Z,33.70
2023-01-08T20:23:21.207Z,33.00
2023-01-08T20:25:54.284Z,30.90
2023-01-08T20:28:27.348Z,30.10
2023-01-08T20:31:07.416Z,34.00
2023-01-08T20:33:41.144Z,39.00
2023-01-08T20:36:17.291Z,38.00
2023-01-08T20:38:53.934Z,31.10
2023-01-08T20:41:27.673Z,36.10
2023-01-08T20:44:03.791Z,38.10
2023-01-08T20:46:38.239Z,33.30
2023-01-08T20:49:16.168Z,35.30
2023-01-08T20:51:58.408Z,39.90
2023-01-08T20:54:33.358Z,31.60
2023-01-08T20:57:06.559Z,40.30
2023-01-08T20:59:39.643Z,33.90
2023-01-08T21:02:14.004Z,36.70
2023-01-08T21:04:47.057Z,40.90
2023-01-08T21:07:20.056Z,36.70
2023-01-08T21:09:53.172Z,39.50
2023-01-08T21:12:26.231Z,35.20
2023-01-08T21:14:59.348Z,40.80
2023-01-08T21:17:32.368Z,36.80
2023-01-08T21:20:06.413Z,41.70
2023-01-08T21:22:39.504Z,43.10
2023-01-08T21:25:14.032Z,38.80
2023-01-08T21:27:47.016Z,48.10
2023-01-08T21:30:20.742Z,46.50
2023-01-08T21:32:53.732Z,42.60
2023-01-08T21:35:26.922Z,47.80
2023-01-08T21:37:59.962Z,48.30
2023-01-08T21:40:33.041Z,43.80
2023-01-08T21:43:23.558Z,40.50
2023-01-08T21:46:02.446Z,35.90
2023-01-08T21:48:35.543Z,44.70
2023-01-08T21:51:28.816Z,36.60
2023-01-08T21:54:01.925Z,49.30
2023-01-08T21:56:35.248Z,43.70
2023-01-08T21:59:08.476Z,42.00
2023-01-08T22:01:42.245Z,42.80
2023-01-08T22:04:15.346Z,48.60
2023-01-08T22:06:48.385Z,46.20
2023-01-08T22:09:21.654Z,37.90
2023-01-08T22:11:55.220Z,45.70
2023-01-08T22:14:28.224Z,47.80
2023-01-08T22:17:04.233Z,43.60
2023-01-08T22:19:38.229Z,43.40
2023-01-08T22:22:11.682Z,42.00
2023-01-08T22:24:44.753Z,43.80
2023-01-08T22:27:18.017Z,39.20
2023-01-08T22:29:51.090Z,43.40
2023-01-08T22:32:24.110Z,39.40
2023-01-08T22:34:57.280Z,36.60
2023-01-08T22:37:30.258Z,37.90
2023-01-08T22:40:03.207Z,40.20
2023-01-08T22:42:36.200Z,40.50
2023-01-08T22:45:11.060Z,40.80
2023-01-08T22:47:44.236Z,42.10
2023-01-08T22:50:17.700Z,51.40
2023-01-08T22:52:50.655Z,42.70
2023-01-08T22:55:24.456Z,47.90
2023-01-08T22:57:57.509Z,43.70
2023-01-08T23:00:30.481Z,45.70
2023-01-08T23:03:03.902Z,42.50
2023-01-08T23:05:37.345Z,44.00
2023-01-08T23:08:11.228Z,44.60
2023-01-08T23:10:45.812Z,43.10
2023-01-08T23:13:18.903Z,38.60
2023-01-08T23:15:52.094Z,41.40
2023-01-08T23:18:25.180Z,37.40
2023-01-08T23:21:04.094Z,41.40
2023-01-08T23:23:37.316Z,40.90
2023-01-08T23:26:13.111Z,39.40
2023-01-08T23:28:47.544Z,41.30
2023-01-08T23:31:23.347Z,40.10
2023-01-08T23:33:57.149Z,38.30
2023-01-08T23:36:30.198Z,41.00
2023-01-08T23:39:03.668Z,36.40
2023-01-08T23:41:36.849Z,41.80
2023-01-08T23:44:14.645Z,37.80
2023-01-08T23:46:47.661Z,41.20
2023-01-08T23:49:20.809Z,38.40
2023-01-08T23:51:54.290Z,41.00
2023-01-08T23:54:27.477Z,47.10
2023-01-08T23:57:00.776Z,51.00
2023-01-08T23:59:33.906Z,53.10
